sensor_id;sensor_type;location;lat;lon;timestamp;P1;durP1;ratioP1;P2;durP2;ratioP2
32082;SDS011;18597;48.328;7.932;2024-01-15T00:02:08;55.13;;;24.80;;
32082;SDS011;18597;48.328;7.932;2024-01-15T00:04:38;52.43;;;23.90;;
32082;SDS011;18597;48.328;7.932;2024-01-15T00:07:05;75.10;;;27.60;;
32082;SDS011;18597;48.328;7.932;2024-01-15T00:09:32;67.00;;;26.10;;
32082;SDS011;18597;48.328;7.932;2024-01-15T00:11:58;65.13;;;24.73;;
32082;SDS011;18597;48.328;7.932;2024-01-15T00:14:25;50.43;;;22.53;;
32082;SDS011;18597;48.328;7.932;2024-01-15T00:16:51;56.10;;;22.60;;
32082;SDS011;18597;48.328;7.932;2024-01-15T00:19:20;66.73;;;25.83;;
32082;SDS011;18597;48.328;7.932;2024-01-15T00:21:47;57.73;;;26.70;;
32082;SDS011;18597;48.328;7.932;2024-01-15T00:24:13;48.33;;;24.27;;
32082;SDS011;18597;48.328;7.932;2024-01-15T00:26:39;57.37;;;24.80;;
32082;SDS011;18597;48.328;7.932;2024-01-15T00:29:06;49.27;;;23.37;;
32082;SDS011;18597;48.328;7.932;2024-01-15T00:31:33;62.13;;;24.93;;
32082;SDS011;18597;48.328;7.932;2024-01-15T00:33:59;50.73;;;22.83;;
32082;SDS011;18597;48.328;7.932;2024-01-15T00:36:25;62.30;;;25.63;;
32082;SDS011;18597;48.328;7.932;2024-01-15T00:38:51;46.60;;;24.10;;
32082;SDS011;18597;48.328;7.932;2024-01-15T00:41:18;55.90;;;24.50;;
32082;SDS011;18597;48.328;7.932;2024-01-15T00:43:44;59.60;;;25.87;;
32082;SDS011;18597;48.328;7.932;2024-01-15T00:46:11;58.43;;;23.07;;
32082;SDS011;18597;48.328;7.932;2024-01-15T00:48:37;48.87;;;23.67;;
32082;SDS011;18597;48.328;7.932;2024-01-15T00:51:03;44.57;;;21.70;;
32082;SDS011;18597;48.328;7.932;2024-01-15T00:53:29;52.60;;;24.33;;
32082;SDS011;18597;48.328;7.932;2024-01-15T00:55:56;54.17;;;24.30;;
32082;SDS011;18597;48.328;7.932;2024-01-15T00:58:22;48.33;;;22.40;;
32082;SDS011;18597;48.328;7.932;2024-01-15T01:00:48;56.10;;;23.73;;
32082;SDS011;18597;48.328;7.932;2024-01-15T01:03:13;54.20;;;23.20;;
32082;SDS011;18597;48.328;7.932;2024-01-15T01:05:39;52.57;;;23.33;;
32082;SDS011;18597;48.328;7.932;2024-01-15T01:08:05;48.23;;;22.33;;
32082;SDS011;18597;48.328;7.932;2024-01-15T01:10:31;51.53;;;22.80;;
32082;SDS011;18597;48.328;7.932;2024-01-15T01:12:57;56.10;;;24.60;;
32082;SDS011;18597;48.328;7.932;2024-01-15T01:15:23;50.40;;;24.37;;
32082;SDS011;18597;48.328;7.932;2024-01-15T01:17:49;46.40;;;23.23;;
32082;SDS011;18597;48.328;7.932;2024-01-15T01:20:15;55.27;;;22.30;;
32082;SDS011;18597;48.328;7.932;2024-01-15T01:22:41;52.20;;;23.67;;
32082;SDS011;18597;48.328;7.932;2024-01-15T01:25:07;51.93;;;22.90;;
32082;SDS011;18597;48.328;7.932;2024-01-15T01:27:34;51.30;;;23.00;;
32082;SDS011;18597;48.328;7.932;2024-01-15T01:30:01;59.77;;;25.10;;
32082;SDS011;18597;48.328;7.932;2024-01-15T01:32:27;49.97;;;21.53;;
32082;SDS011;18597;48.328;7.932;2024-01-15T01:34:53;57.30;;;23.50;;
32082;SDS011;18597;48.328;7.932;2024-01-15T01:37:19;54.07;;;23.73;;
32082;SDS011;18597;48.328;7.932;2024-01-15T01:39:45;58.13;;;22.77;;
32082;SDS011;18597;48.328;7.932;2024-01-15T01:42:11;57.03;;;24.40;;
32082;SDS011;18597;48.328;7.932;2024-01-15T01:44:37;57.70;;;25.00;;
32082;SDS011;18597;48.328;7.932;2024-01-15T01:47:03;56.33;;;22.77;;
32082;SDS011;18597;48.328;7.932;2024-01-15T01:49:30;50.27;;;20.40;;
32082;SDS011;18597;48.328;7.932;2024-01-15T01:51:57;58.27;;;24.57;;
32082;SDS011;18597;48.328;7.932;2024-01-15T01:54:26;58.00;;;22.63;;
32082;SDS011;18597;48.328;7.932;2024-01-15T01:56:56;45.83;;;21.07;;
32082;SDS011;18597;48.328;7.932;2024-01-15T01:59:23;49.37;;;22.60;;
32082;SDS011;18597;48.328;7.932;2024-01-15T02:01:52;51.77;;;23.97;;
32082;SDS011;18597;48.328;7.932;2024-01-15T02:04:20;52.27;;;21.30;;
32082;SDS011;18597;48.328;7.932;2024-01-15T02:06:49;46.30;;;21.77;;
32082;SDS011;18597;48.328;7.932;2024-01-15T02:09:16;53.33;;;23.27;;
32082;SDS011;18597;48.328;7.932;2024-01-15T02:11:43;50.10;;;21.37;;
32082;SDS011;18597;48.328;7.932;2024-01-15T02:14:12;47.90;;;20.70;;
32082;SDS011;18597;48.328;7.932;2024-01-15T02:16:38;44.63;;;22.03;;
32082;SDS011;18597;48.328;7.932;2024-01-15T02:19:04;53.80;;;23.00;;
32082;SDS011;18597;48.328;7.932;2024-01-15T02:21:31;49.10;;;23.50;;
32082;SDS011;18597;48.328;7.932;2024-01-15T02:23:57;46.87;;;19.93;;
32082;SDS011;18597;48.328;7.932;2024-01-15T02:26:24;48.50;;;21.27;;
32082;SDS011;18597;48.328;7.932;2024-01-15T02:28:50;44.30;;;21.83;;
32082;SDS011;18597;48.328;7.932;2024-01-15T02:31:16;45.60;;;19.90;;
32082;SDS011;18597;48.328;7.932;2024-01-15T02:33:43;44.50;;;20.70;;
32082;SDS011;18597;48.328;7.932;2024-01-15T02:36:11;35.87;;;18.87;;
32082;SDS011;18597;48.328;7.932;2024-01-15T02:38:37;45.73;;;22.13;;
32082;SDS011;18597;48.328;7.932;2024-01-15T02:41:03;42.20;;;20.00;;
32082;SDS011;18597;48.328;7.932;2024-01-15T02:43:29;49.13;;;20.70;;
32082;SDS011;18597;48.328;7.932;2024-01-15T02:45:55;49.27;;;19.77;;
32082;SDS011;18597;48.328;7.932;2024-01-15T02:48:21;52.43;;;21.50;;
32082;SDS011;18597;48.328;7.932;2024-01-15T02:50:47;48.70;;;19.33;;
32082;SDS011;18597;48.328;7.932;2024-01-15T02:53:12;41.87;;;19.10;;
32082;SDS011;18597;48.328;7.932;2024-01-15T02:55:38;40.53;;;19.40;;
32082;SDS011;18597;48.328;7.932;2024-01-15T02:58:04;44.13;;;21.80;;
32082;SDS011;18597;48.328;7.932;2024-01-15T03:00:30;44.80;;;22.40;;
32082;SDS011;18597;48.328;7.932;2024-01-15T03:02:56;42.47;;;20.73;;
32082;SDS011;18597;48.328;7.932;2024-01-15T03:05:22;41.83;;;20.40;;
32082;SDS011;18597;48.328;7.932;2024-01-15T03:07:48;44.37;;;20.57;;
32082;SDS011;18597;48.328;7.932;2024-01-15T03:10:13;51.13;;;22.57;;
32082;SDS011;18597;48.328;7.932;2024-01-15T03:12:39;49.67;;;22.70;;
32082;SDS011;18597;48.328;7.932;2024-01-15T03:15:05;41.63;;;20.90;;
32082;SDS011;18597;48.328;7.932;2024-01-15T03:17:31;41.60;;;19.37;;
32082;SDS011;18597;48.328;7.932;2024-01-15T03:19:57;42.00;;;20.67;;
32082;SDS011;18597;48.328;7.932;2024-01-15T03:22:23;45.60;;;20.80;;
32082;SDS011;18597;48.328;7.932;2024-01-15T03:24:49;46.03;;;19.40;;
32082;SDS011;18597;48.328;7.932;2024-01-15T03:27:14;45.33;;;19.17;;
32082;SDS011;18597;48.328;7.932;2024-01-15T03:29:41;45.17;;;20.30;;
32082;SDS011;18597;48.328;7.932;2024-01-15T03:32:06;45.13;;;20.17;;
32082;SDS011;18597;48.328;7.932;2024-01-15T03:34:33;43.37;;;19.60;;
32082;SDS011;18597;48.328;7.932;2024-01-15T03:36:58;46.60;;;18.87;;
32082;SDS011;18597;48.328;7.932;2024-01-15T03:39:24;44.60;;;20.50;;
32082;SDS011;18597;48.328;7.932;2024-01-15T03:41:50;35.00;;;18.67;;
32082;SDS011;18597;48.328;7.932;2024-01-15T03:44:16;42.23;;;18.37;;
32082;SDS011;18597;48.328;7.932;2024-01-15T03:46:42;44.10;;;18.30;;
32082;SDS011;18597;48.328;7.932;2024-01-15T03:49:07;40.30;;;18.37;;
32082;SDS011;18597;48.328;7.932;2024-01-15T03:51:33;54.10;;;20.53;;
32082;SDS011;18597;48.328;7.932;2024-01-15T03:53:59;38.90;;;18.63;;
32082;SDS011;18597;48.328;7.932;2024-01-15T03:56:25;49.57;;;21.20;;
32082;SDS011;18597;48.328;7.932;2024-01-15T03:58:51;49.30;;;20.87;;
32082;SDS011;18597;48.328;7.932;2024-01-15T04:01:16;49.27;;;21.40;;
32082;SDS011;18597;48.328;7.932;2024-01-15T04:03:42;50.37;;;21.17;;
32082;SDS011;18597;48.328;7.932;2024-01-15T04:06:08;43.30;;;19.87;;
32082;SDS011;18597;48.328;7.932;2024-01-15T04:08:34;42.63;;;19.10;;
32082;SDS011;18597;48.328;7.932;2024-01-15T04:11:00;48.70;;;19.73;;
32082;SDS011;18597;48.328;7.932;2024-01-15T04:13:27;40.20;;;17.83;;
32082;SDS011;18597;48.328;7.932;2024-01-15T04:15:53;51.30;;;20.37;;
32082;SDS011;18597;48.328;7.932;2024-01-15T04:18:18;38.97;;;19.47;;
32082;SDS011;18597;48.328;7.932;2024-01-15T04:20:44;45.53;;;19.53;;
32082;SDS011;18597;48.328;7.932;2024-01-15T04:23:10;48.43;;;20.93;;
32082;SDS011;18597;48.328;7.932;2024-01-15T04:25:36;43.77;;;20.17;;
32082;SDS011;18597;48.328;7.932;2024-01-15T04:28:02;47.23;;;21.40;;
32082;SDS011;18597;48.328;7.932;2024-01-15T04:30:28;46.40;;;21.30;;
32082;SDS011;18597;48.328;7.932;2024-01-15T04:32:53;48.03;;;20.97;;
32082;SDS011;18597;48.328;7.932;2024-01-15T04:35:19;46.87;;;22.03;;
32082;SDS011;18597;48.328;7.932;2024-01-15T04:37:45;40.10;;;18.90;;
32082;SDS011;18597;48.328;7.932;2024-01-15T04:40:11;49.23;;;20.57;;
32082;SDS011;18597;48.328;7.932;2024-01-15T04:42:37;43.00;;;20.73;;
32082;SDS011;18597;48.328;7.932;2024-01-15T04:45:03;47.53;;;20.43;;
32082;SDS011;18597;48.328;7.932;2024-01-15T04:47:29;55.10;;;22.83;;
32082;SDS011;18597;48.328;7.932;2024-01-15T04:49:55;45.73;;;18.60;;
32082;SDS011;18597;48.328;7.932;2024-01-15T04:52:21;46.33;;;18.67;;
32082;SDS011;18597;48.328;7.932;2024-01-15T04:54:47;45.97;;;21.00;;
32082;SDS011;18597;48.328;7.932;2024-01-15T04:57:12;43.53;;;19.73;;
32082;SDS011;18597;48.328;7.932;2024-01-15T04:59:38;52.00;;;25.00;;
32082;SDS011;18597;48.328;7.932;2024-01-15T05:02:05;53.92;;;24.88;;
32082;SDS011;18597;48.328;7.932;2024-01-15T05:04:30;46.20;;;21.07;;
32082;SDS011;18597;48.328;7.932;2024-01-15T05:06:57;48.57;;;20.70;;
32082;SDS011;18597;48.328;7.932;2024-01-15T05:09:23;42.67;;;20.03;;
32082;SDS011;18597;48.328;7.932;2024-01-15T05:11:49;44.63;;;18.67;;
32082;SDS011;18597;48.328;7.932;2024-01-15T05:14:15;41.10;;;20.23;;
32082;SDS011;18597;48.328;7.932;2024-01-15T05:16:48;46.77;;;20.37;;
32082;SDS011;18597;48.328;7.932;2024-01-15T05:19:15;43.50;;;18.90;;
32082;SDS011;18597;48.328;7.932;2024-01-15T05:21:41;53.13;;;21.57;;
32082;SDS011;18597;48.328;7.932;2024-01-15T05:24:07;71.67;;;30.00;;
32082;SDS011;18597;48.328;7.932;2024-01-15T05:26:34;60.90;;;28.07;;
32082;SDS011;18597;48.328;7.932;2024-01-15T05:28:59;56.13;;;24.57;;
32082;SDS011;18597;48.328;7.932;2024-01-15T05:31:25;59.83;;;27.30;;
32082;SDS011;18597;48.328;7.932;2024-01-15T05:33:51;59.40;;;25.00;;
32082;SDS011;18597;48.328;7.932;2024-01-15T05:36:18;54.27;;;24.63;;
32082;SDS011;18597;48.328;7.932;2024-01-15T05:38:44;48.50;;;22.93;;
32082;SDS011;18597;48.328;7.932;2024-01-15T05:41:09;59.17;;;22.83;;
32082;SDS011;18597;48.328;7.932;2024-01-15T05:43:35;52.00;;;21.53;;
32082;SDS011;18597;48.328;7.932;2024-01-15T05:46:01;48.43;;;21.77;;
32082;SDS011;18597;48.328;7.932;2024-01-15T05:48:28;44.10;;;20.67;;
32082;SDS011;18597;48.328;7.932;2024-01-15T05:50:53;48.37;;;20.37;;
32082;SDS011;18597;48.328;7.932;2024-01-15T05:53:19;50.93;;;18.77;;
32082;SDS011;18597;48.328;7.932;2024-01-15T05:55:45;51.43;;;22.70;;
32082;SDS011;18597;48.328;7.932;2024-01-15T05:58:11;78.27;;;29.60;;
32082;SDS011;18597;48.328;7.932;2024-01-15T06:00:37;64.50;;;25.20;;
32082;SDS011;18597;48.328;7.932;2024-01-15T06:03:03;64.00;;;29.30;;
32082;SDS011;18597;48.328;7.932;2024-01-15T06:05:29;69.10;;;27.00;;
32082;SDS011;18597;48.328;7.932;2024-01-15T06:07:55;45.10;;;20.73;;
32082;SDS011;18597;48.328;7.932;2024-01-15T06:10:21;40.20;;;17.80;;
32082;SDS011;18597;48.328;7.932;2024-01-15T06:12:46;43.00;;;18.57;;
32082;SDS011;18597;48.328;7.932;2024-01-15T06:15:12;40.33;;;19.57;;
32082;SDS011;18597;48.328;7.932;2024-01-15T06:17:38;43.33;;;21.00;;
32082;SDS011;18597;48.328;7.932;2024-01-15T06:20:04;48.63;;;22.00;;
32082;SDS011;18597;48.328;7.932;2024-01-15T06:22:31;44.00;;;19.10;;
32082;SDS011;18597;48.328;7.932;2024-01-15T06:24:57;40.33;;;18.20;;
32082;SDS011;18597;48.328;7.932;2024-01-15T06:27:23;40.30;;;18.33;;
32082;SDS011;18597;48.328;7.932;2024-01-15T06:29:48;36.20;;;14.80;;
32082;SDS011;18597;48.328;7.932;2024-01-15T06:32:14;30.73;;;15.33;;
32082;SDS011;18597;48.328;7.932;2024-01-15T06:34:40;37.13;;;18.23;;
32082;SDS011;18597;48.328;7.932;2024-01-15T06:37:06;41.80;;;18.13;;
32082;SDS011;18597;48.328;7.932;2024-01-15T06:39:32;33.10;;;16.53;;
32082;SDS011;18597;48.328;7.932;2024-01-15T06:41:57;38.70;;;17.17;;
32082;SDS011;18597;48.328;7.932;2024-01-15T06:44:23;41.53;;;18.30;;
32082;SDS011;18597;48.328;7.932;2024-01-15T06:46:49;42.80;;;20.00;;
32082;SDS011;18597;48.328;7.932;2024-01-15T06:49:16;45.97;;;19.63;;
32082;SDS011;18597;48.328;7.932;2024-01-15T06:51:42;44.57;;;20.40;;
32082;SDS011;18597;48.328;7.932;2024-01-15T06:54:08;39.03;;;18.20;;
32082;SDS011;18597;48.328;7.932;2024-01-15T06:56:34;36.47;;;17.87;;
32082;SDS011;18597;48.328;7.932;2024-01-15T06:58:59;37.87;;;15.67;;
32082;SDS011;18597;48.328;7.932;2024-01-15T07:01:25;32.57;;;16.67;;
32082;SDS011;18597;48.328;7.932;2024-01-15T07:03:51;30.07;;;14.27;;
32082;SDS011;18597;48.328;7.932;2024-01-15T07:06:17;30.57;;;12.40;;
32082;SDS011;18597;48.328;7.932;2024-01-15T07:08:43;29.90;;;14.00;;
32082;SDS011;18597;48.328;7.932;2024-01-15T07:11:09;37.00;;;16.17;;
32082;SDS011;18597;48.328;7.932;2024-01-15T07:13:36;38.97;;;15.67;;
32082;SDS011;18597;48.328;7.932;2024-01-15T07:16:01;34.50;;;15.60;;
32082;SDS011;18597;48.328;7.932;2024-01-15T07:18:27;42.13;;;15.97;;
32082;SDS011;18597;48.328;7.932;2024-01-15T07:20:53;31.30;;;14.63;;
32082;SDS011;18597;48.328;7.932;2024-01-15T07:23:19;39.07;;;15.47;;
32082;SDS011;18597;48.328;7.932;2024-01-15T07:25:45;33.03;;;16.20;;
32082;SDS011;18597;48.328;7.932;2024-01-15T07:28:11;30.40;;;14.20;;
32082;SDS011;18597;48.328;7.932;2024-01-15T07:30:37;38.37;;;14.90;;
32082;SDS011;18597;48.328;7.932;2024-01-15T07:33:04;31.00;;;15.77;;
32082;SDS011;18597;48.328;7.932;2024-01-15T07:35:30;42.13;;;17.07;;
32082;SDS011;18597;48.328;7.932;2024-01-15T07:37:57;39.03;;;16.47;;
32082;SDS011;18597;48.328;7.932;2024-01-15T07:40:23;31.30;;;17.07;;
32082;SDS011;18597;48.328;7.932;2024-01-15T07:42:49;31.53;;;15.50;;
32082;SDS011;18597;48.328;7.932;2024-01-15T07:45:16;37.37;;;17.50;;
32082;SDS011;18597;48.328;7.932;2024-01-15T07:47:42;31.87;;;17.30;;
32082;SDS011;18597;48.328;7.932;2024-01-15T07:50:09;41.20;;;19.27;;
32082;SDS011;18597;48.328;7.932;2024-01-15T07:52:35;36.87;;;16.43;;
32082;SDS011;18597;48.328;7.932;2024-01-15T07:55:01;40.97;;;16.37;;
32082;SDS011;18597;48.328;7.932;2024-01-15T07:57:28;42.23;;;14.53;;
32082;SDS011;18597;48.328;7.932;2024-01-15T07:59:54;35.27;;;15.93;;
32082;SDS011;18597;48.328;7.932;2024-01-15T08:02:20;31.87;;;15.57;;
32082;SDS011;18597;48.328;7.932;2024-01-15T08:04:46;30.93;;;15.30;;
32082;SDS011;18597;48.328;7.932;2024-01-15T08:07:12;33.97;;;16.17;;
32082;SDS011;18597;48.328;7.932;2024-01-15T08:09:38;40.67;;;17.37;;
32082;SDS011;18597;48.328;7.932;2024-01-15T08:12:04;36.37;;;15.37;;
32082;SDS011;18597;48.328;7.932;2024-01-15T08:14:31;32.67;;;14.50;;
32082;SDS011;18597;48.328;7.932;2024-01-15T08:16:57;32.90;;;13.53;;
32082;SDS011;18597;48.328;7.932;2024-01-15T08:19:23;27.33;;;13.87;;
32082;SDS011;18597;48.328;7.932;2024-01-15T08:21:49;33.83;;;14.37;;
32082;SDS011;18597;48.328;7.932;2024-01-15T08:24:15;29.50;;;15.17;;
32082;SDS011;18597;48.328;7.932;2024-01-15T08:26:42;27.27;;;13.17;;
32082;SDS011;18597;48.328;7.932;2024-01-15T08:29:08;29.43;;;12.43;;
32082;SDS011;18597;48.328;7.932;2024-01-15T08:31:34;23.93;;;11.83;;
32082;SDS011;18597;48.328;7.932;2024-01-15T08:33:59;35.47;;;14.60;;
32082;SDS011;18597;48.328;7.932;2024-01-15T08:36:26;28.73;;;11.90;;
32082;SDS011;18597;48.328;7.932;2024-01-15T08:38:54;34.77;;;14.93;;
32082;SDS011;18597;48.328;7.932;2024-01-15T08:41:20;28.30;;;14.23;;
32082;SDS011;18597;48.328;7.932;2024-01-15T08:43:46;34.90;;;14.53;;
32082;SDS011;18597;48.328;7.932;2024-01-15T08:46:12;22.43;;;11.23;;
32082;SDS011;18597;48.328;7.932;2024-01-15T08:48:38;30.97;;;12.20;;
32082;SDS011;18597;48.328;7.932;2024-01-15T08:51:04;31.80;;;13.07;;
32082;SDS011;18597;48.328;7.932;2024-01-15T08:53:31;22.80;;;12.30;;
32082;SDS011;18597;48.328;7.932;2024-01-15T08:55:57;31.63;;;14.30;;
32082;SDS011;18597;48.328;7.932;2024-01-15T08:58:23;26.43;;;14.00;;
32082;SDS011;18597;48.328;7.932;2024-01-15T09:00:50;32.20;;;13.57;;
32082;SDS011;18597;48.328;7.932;2024-01-15T09:03:16;31.00;;;13.53;;
32082;SDS011;18597;48.328;7.932;2024-01-15T09:05:42;24.07;;;12.43;;
32082;SDS011;18597;48.328;7.932;2024-01-15T09:08:08;32.20;;;12.40;;
32082;SDS011;18597;48.328;7.932;2024-01-15T09:10:34;29.30;;;12.23;;
32082;SDS011;18597;48.328;7.932;2024-01-15T09:13:00;22.37;;;12.90;;
32082;SDS011;18597;48.328;7.932;2024-01-15T09:15:25;21.10;;;11.17;;
32082;SDS011;18597;48.328;7.932;2024-01-15T09:17:51;29.07;;;11.40;;
32082;SDS011;18597;48.328;7.932;2024-01-15T09:20:17;22.97;;;10.10;;
32082;SDS011;18597;48.328;7.932;2024-01-15T09:22:43;25.23;;;12.67;;
32082;SDS011;18597;48.328;7.932;2024-01-15T09:25:09;48.10;;;17.20;;
32082;SDS011;18597;48.328;7.932;2024-01-15T09:27:35;98.63;;;34.77;;
32082;SDS011;18597;48.328;7.932;2024-01-15T09:30:02;80.30;;;27.60;;
32082;SDS011;18597;48.328;7.932;2024-01-15T09:32:29;63.90;;;28.90;;
32082;SDS011;18597;48.328;7.932;2024-01-15T09:34:55;45.73;;;20.63;;
32082;SDS011;18597;48.328;7.932;2024-01-15T09:37:21;41.13;;;17.67;;
32082;SDS011;18597;48.328;7.932;2024-01-15T09:39:48;32.30;;;14.70;;
32082;SDS011;18597;48.328;7.932;2024-01-15T09:42:15;31.20;;;15.50;;
32082;SDS011;18597;48.328;7.932;2024-01-15T09:44:42;31.77;;;12.47;;
32082;SDS011;18597;48.328;7.932;2024-01-15T09:47:08;32.60;;;17.30;;
32082;SDS011;18597;48.328;7.932;2024-01-15T09:49:35;34.50;;;14.77;;
32082;SDS011;18597;48.328;7.932;2024-01-15T09:52:01;21.87;;;11.90;;
32082;SDS011;18597;48.328;7.932;2024-01-15T09:54:28;27.90;;;12.27;;
32082;SDS011;18597;48.328;7.932;2024-01-15T09:56:55;21.40;;;9.80;;
32082;SDS011;18597;48.328;7.932;2024-01-15T09:59:21;20.37;;;11.03;;
32082;SDS011;18597;48.328;7.932;2024-01-15T10:01:49;18.33;;;10.53;;
32082;SDS011;18597;48.328;7.932;2024-01-15T10:04:17;28.87;;;13.67;;
32082;SDS011;18597;48.328;7.932;2024-01-15T10:06:44;24.33;;;11.23;;
32082;SDS011;18597;48.328;7.932;2024-01-15T10:09:12;25.53;;;14.43;;
32082;SDS011;18597;48.328;7.932;2024-01-15T10:11:40;24.07;;;13.97;;
32082;SDS011;18597;48.328;7.932;2024-01-15T10:14:08;25.43;;;13.83;;
32082;SDS011;18597;48.328;7.932;2024-01-15T10:16:37;29.20;;;13.03;;
32082;SDS011;18597;48.328;7.932;2024-01-15T10:19:05;22.70;;;11.47;;
32082;SDS011;18597;48.328;7.932;2024-01-15T10:21:32;17.63;;;10.73;;
32082;SDS011;18597;48.328;7.932;2024-01-15T10:24:00;25.50;;;11.97;;
32082;SDS011;18597;48.328;7.932;2024-01-15T10:26:27;24.17;;;12.77;;
32082;SDS011;18597;48.328;7.932;2024-01-15T10:28:53;21.77;;;11.33;;
32082;SDS011;18597;48.328;7.932;2024-01-15T10:31:19;26.07;;;12.70;;
32082;SDS011;18597;48.328;7.932;2024-01-15T10:33:47;19.60;;;10.80;;
32082;SDS011;18597;48.328;7.932;2024-01-15T10:36:14;17.73;;;9.20;;
32082;SDS011;18597;48.328;7.932;2024-01-15T10:38:43;21.47;;;9.80;;
32082;SDS011;18597;48.328;7.932;2024-01-15T10:41:10;18.27;;;8.93;;
32082;SDS011;18597;48.328;7.932;2024-01-15T10:43:36;18.73;;;10.30;;
32082;SDS011;18597;48.328;7.932;2024-01-15T10:46:02;18.07;;;9.60;;
32082;SDS011;18597;48.328;7.932;2024-01-15T10:48:29;18.93;;;9.47;;
32082;SDS011;18597;48.328;7.932;2024-01-15T10:50:56;13.70;;;7.90;;
32082;SDS011;18597;48.328;7.932;2024-01-15T10:53:23;12.53;;;8.23;;
32082;SDS011;18597;48.328;7.932;2024-01-15T10:55:51;16.73;;;9.63;;
32082;SDS011;18597;48.328;7.932;2024-01-15T10:58:17;14.80;;;7.93;;
32082;SDS011;18597;48.328;7.932;2024-01-15T11:00:45;15.20;;;8.50;;
32082;SDS011;18597;48.328;7.932;2024-01-15T11:03:11;17.70;;;9.03;;
32082;SDS011;18597;48.328;7.932;2024-01-15T11:05:37;14.87;;;8.70;;
32082;SDS011;18597;48.328;7.932;2024-01-15T11:08:05;14.93;;;8.17;;
32082;SDS011;18597;48.328;7.932;2024-01-15T11:10:47;14.50;;;8.77;;
32082;SDS011;18597;48.328;7.932;2024-01-15T11:13:20;13.10;;;7.80;;
32082;SDS011;18597;48.328;7.932;2024-01-15T11:16:04;24.20;;;13.00;;
32082;SDS011;18597;48.328;7.932;2024-01-15T11:18:36;20.67;;;10.93;;
32082;SDS011;18597;48.328;7.932;2024-01-15T11:23:52;15.53;;;8.03;;
32082;SDS011;18597;48.328;7.932;2024-01-15T11:26:53;48.90;;;18.57;;
32082;SDS011;18597;48.328;7.932;2024-01-15T11:29:28;15.70;;;9.70;;
32082;SDS011;18597;48.328;7.932;2024-01-15T11:31:59;13.57;;;8.20;;
32082;SDS011;18597;48.328;7.932;2024-01-15T11:35:07;16.13;;;8.90;;
32082;SDS011;18597;48.328;7.932;2024-01-15T11:37:24;15.60;;;9.33;;
32082;SDS011;18597;48.328;7.932;2024-01-15T11:39:52;16.77;;;8.07;;
32082;SDS011;18597;48.328;7.932;2024-01-15T11:42:28;15.50;;;8.10;;
32082;SDS011;18597;48.328;7.932;2024-01-15T11:44:55;14.53;;;7.77;;
32082;SDS011;18597;48.328;7.932;2024-01-15T11:47:28;13.97;;;8.70;;
32082;SDS011;18597;48.328;7.932;2024-01-15T11:50:33;14.60;;;8.60;;
32082;SDS011;18597;48.328;7.932;2024-01-15T11:53:00;15.60;;;8.60;;
32082;SDS011;18597;48.328;7.932;2024-01-15T11:55:33;15.00;;;9.50;;
32082;SDS011;18597;48.328;7.932;2024-01-15T11:58:01;12.40;;;8.27;;
32082;SDS011;18597;48.328;7.932;2024-01-15T12:00:32;16.60;;;9.07;;
32082;SDS011;18597;48.328;7.932;2024-01-15T12:02:58;18.33;;;11.23;;
32082;SDS011;18597;48.328;7.932;2024-01-15T12:05:26;17.23;;;9.20;;
32082;SDS011;18597;48.328;7.932;2024-01-15T12:07:52;17.73;;;9.20;;
32082;SDS011;18597;48.328;7.932;2024-01-15T12:10:19;14.20;;;8.60;;
32082;SDS011;18597;48.328;7.932;2024-01-15T12:13:17;15.27;;;8.50;;
32082;SDS011;18597;48.328;7.932;2024-01-15T12:15:45;9.47;;;6.90;;
32082;SDS011;18597;48.328;7.932;2024-01-15T12:18:13;17.10;;;8.67;;
32082;SDS011;18597;48.328;7.932;2024-01-15T12:20:40;14.03;;;7.13;;
32082;SDS011;18597;48.328;7.932;2024-01-15T12:23:08;15.63;;;9.50;;
32082;SDS011;18597;48.328;7.932;2024-01-15T12:25:35;16.43;;;9.00;;
32082;SDS011;18597;48.328;7.932;2024-01-15T12:28:01;15.20;;;8.50;;
32082;SDS011;18597;48.328;7.932;2024-01-15T12:30:28;17.90;;;10.77;;
32082;SDS011;18597;48.328;7.932;2024-01-15T12:32:56;14.17;;;8.93;;
32082;SDS011;18597;48.328;7.932;2024-01-15T12:35:23;16.20;;;9.30;;
32082;SDS011;18597;48.328;7.932;2024-01-15T12:37:51;17.73;;;9.33;;
32082;SDS011;18597;48.328;7.932;2024-01-15T12:40:19;16.33;;;9.37;;
32082;SDS011;18597;48.328;7.932;2024-01-15T12:42:46;14.90;;;9.23;;
32082;SDS011;18597;48.328;7.932;2024-01-15T12:45:12;15.97;;;9.00;;
32082;SDS011;18597;48.328;7.932;2024-01-15T12:47:39;24.70;;;12.03;;
32082;SDS011;18597;48.328;7.932;2024-01-15T12:50:07;52.90;;;17.63;;
32082;SDS011;18597;48.328;7.932;2024-01-15T12:52:35;58.20;;;24.80;;
32082;SDS011;18597;48.328;7.932;2024-01-15T12:55:04;50.27;;;24.10;;
32082;SDS011;18597;48.328;7.932;2024-01-15T12:57:33;30.47;;;13.90;;
32082;SDS011;18597;48.328;7.932;2024-01-15T13:00:00;34.17;;;16.70;;
32082;SDS011;18597;48.328;7.932;2024-01-15T13:02:31;61.20;;;27.63;;
32082;SDS011;18597;48.328;7.932;2024-01-15T13:04:58;75.20;;;30.37;;
32082;SDS011;18597;48.328;7.932;2024-01-15T13:07:24;25.30;;;13.63;;
32082;SDS011;18597;48.328;7.932;2024-01-15T13:09:50;35.50;;;16.10;;
32082;SDS011;18597;48.328;7.932;2024-01-15T13:12:19;39.63;;;18.27;;
32082;SDS011;18597;48.328;7.932;2024-01-15T13:14:45;29.43;;;13.67;;
32082;SDS011;18597;48.328;7.932;2024-01-15T13:17:12;19.10;;;10.20;;
32082;SDS011;18597;48.328;7.932;2024-01-15T13:19:39;28.07;;;12.27;;
32082;SDS011;18597;48.328;7.932;2024-01-15T13:22:05;45.33;;;21.53;;
32082;SDS011;18597;48.328;7.932;2024-01-15T13:24:34;33.23;;;11.90;;
32082;SDS011;18597;48.328;7.932;2024-01-15T13:27:01;10.73;;;6.80;;
32082;SDS011;18597;48.328;7.932;2024-01-15T13:29:29;23.00;;;9.30;;
32082;SDS011;18597;48.328;7.932;2024-01-15T13:31:56;28.23;;;12.67;;
32082;SDS011;18597;48.328;7.932;2024-01-15T13:34:22;17.80;;;7.77;;
32082;SDS011;18597;48.328;7.932;2024-01-15T13:36:49;12.03;;;8.47;;
32082;SDS011;18597;48.328;7.932;2024-01-15T13:39:15;13.23;;;8.93;;
32082;SDS011;18597;48.328;7.932;2024-01-15T13:41:45;11.03;;;7.63;;
32082;SDS011;18597;48.328;7.932;2024-01-15T13:44:12;11.50;;;6.57;;
32082;SDS011;18597;48.328;7.932;2024-01-15T13:46:37;7.43;;;5.97;;
32082;SDS011;18597;48.328;7.932;2024-01-15T13:49:03;9.90;;;6.63;;
32082;SDS011;18597;48.328;7.932;2024-01-15T13:51:34;10.10;;;6.20;;
32082;SDS011;18597;48.328;7.932;2024-01-15T13:54:01;9.63;;;6.57;;
32082;SDS011;18597;48.328;7.932;2024-01-15T13:56:29;9.50;;;6.10;;
32082;SDS011;18597;48.328;7.932;2024-01-15T13:58:57;11.30;;;5.93;;
32082;SDS011;18597;48.328;7.932;2024-01-15T14:01:24;10.20;;;5.40;;
32082;SDS011;18597;48.328;7.932;2024-01-15T14:03:50;5.93;;;5.20;;
32082;SDS011;18597;48.328;7.932;2024-01-15T14:06:16;8.57;;;5.10;;
32082;SDS011;18597;48.328;7.932;2024-01-15T14:08:41;8.30;;;6.57;;
32082;SDS011;18597;48.328;7.932;2024-01-15T14:11:07;11.00;;;6.20;;
32082;SDS011;18597;48.328;7.932;2024-01-15T14:13:35;10.43;;;6.47;;
32082;SDS011;18597;48.328;7.932;2024-01-15T14:16:00;7.97;;;5.83;;
32082;SDS011;18597;48.328;7.932;2024-01-15T14:18:27;9.90;;;6.57;;
32082;SDS011;18597;48.328;7.932;2024-01-15T14:20:53;9.83;;;6.50;;
32082;SDS011;18597;48.328;7.932;2024-01-15T14:23:19;12.07;;;6.43;;
32082;SDS011;18597;48.328;7.932;2024-01-15T14:25:46;12.80;;;8.00;;